createdAt,value
2023-07-03T00:01:22.451Z,18.80
2023-07-03T00:03:52.765Z,18.80
2023-07-03T00:06:19.957Z,18.90
2023-07-03T00:08:46.699Z,18.80
2023-07-03T00:11:13.516Z,18.80
2023-07-03T00:13:40.219Z,18.80
2023-07-03T00:16:07.064Z,18.70
2023-07-03T00:18:34.155Z,18.70
2023-07-03T00:21:00.867Z,18.70
2023-07-03T00:23:27.652Z,18.70
2023-07-03T00:25:54.855Z,18.70
2023-07-03T00:28:21.560Z,18.60
2023-07-03T00:30:48.323Z,18.60
2023-07-03T00:33:15.502Z,18.50
2023-07-03T00:35:43.934Z,18.30
2023-07-03T00:38:10.716Z,18.30
2023-07-03T00:40:37.517Z,18.20
2023-07-03T00:43:05.105Z,18.10
2023-07-03T00:45:33.825Z,18.10
2023-07-03T00:48:00.636Z,18.00
2023-07-03T00:50:27.893Z,17.90
2023-07-03T00:52:58.174Z,17.90
2023-07-03T00:55:25.022Z,17.80
2023-07-03T00:57:52.331Z,17.80
2023-07-03T01:00:19.727Z,17.60
2023-07-03T01:02:59.151Z,17.60
2023-07-03T01:05:28.289Z,17.60
2023-07-03T01:07:56.434Z,17.60
2023-07-03T01:10:24.880Z,17.60
2023-07-03T01:12:53.593Z,17.50
2023-07-03T01:15:22.279Z,17.50
2023-07-03T01:17:51.801Z,17.50
2023-07-03T01:20:19.153Z,17.50
2023-07-03T01:22:50.282Z,17.40
2023-07-03T01:25:19.889Z,17.40
2023-07-03T01:27:46.864Z,17.40
2023-07-03T01:30:16.046Z,17.40
2023-07-03T01:32:44.283Z,17.30
2023-07-03T01:35:12.643Z,17.30
2023-07-03T01:37:40.893Z,17.30
2023-07-03T01:40:12.154Z,17.20
2023-07-03T01:42:39.855Z,17.20
2023-07-03T01:45:06.913Z,17.10
2023-07-03T01:47:34.105Z,17.10
2023-07-03T01:50:01.176Z,17.10
2023-07-03T01:52:31.614Z,17.10
2023-07-03T01:55:03.217Z,17.00
2023-07-03T01:57:49.349Z,17.00
2023-07-03T02:00:20.368Z,17.00
2023-07-03T02:02:49.587Z,16.90
2023-07-03T02:05:18.818Z,16.90
2023-07-03T02:07:46.621Z,16.90
2023-07-03T02:10:13.415Z,16.90
2023-07-03T02:12:44.750Z,16.90
2023-07-03T02:15:15.488Z,16.90
2023-07-03T02:17:43.056Z,16.90
2023-07-03T02:20:16.000Z,16.80
2023-07-03T02:22:43.075Z,16.80
2023-07-03T02:25:11.059Z,16.80
2023-07-03T02:27:37.919Z,16.80
2023-07-03T02:30:05.206Z,16.70
2023-07-03T02:32:36.052Z,16.70
2023-07-03T02:35:03.139Z,16.80
2023-07-03T02:37:29.864Z,16.70
2023-07-03T02:39:58.666Z,16.60
2023-07-03T02:42:26.965Z,16.60
2023-07-03T02:44:54.225Z,16.60
2023-07-03T02:47:21.115Z,16.60
2023-07-03T02:49:48.896Z,16.60
2023-07-03T02:52:16.978Z,16.60
2023-07-03T02:54:43.784Z,16.60
2023-07-03T02:57:11.489Z,16.60
2023-07-03T02:59:38.322Z,16.60
2023-07-03T03:02:05.138Z,16.60
2023-07-03T03:04:32.447Z,16.60
2023-07-03T03:06:59.167Z,16.70
2023-07-03T03:09:26.087Z,16.60
2023-07-03T03:11:54.008Z,16.60
2023-07-03T03:14:20.872Z,16.60
2023-07-03T03:16:48.541Z,16.60
2023-07-03T03:19:15.338Z,16.60
2023-07-03T03:21:42.253Z,16.60
2023-07-03T03:24:09.119Z,16.60
2023-07-03T03:26:39.690Z,16.60
2023-07-03T03:29:07.612Z,16.60
2023-07-03T03:31:34.470Z,16.60
2023-07-03T03:34:05.171Z,16.60
2023-07-03T03:36:34.233Z,16.60
2023-07-03T03:39:01.469Z,16.60
2023-07-03T03:41:32.557Z,16.60
2023-07-03T03:43:59.474Z,16.60
2023-07-03T03:46:26.262Z,16.60
2023-07-03T03:48:53.570Z,16.60
2023-07-03T03:51:20.891Z,16.50
2023-07-03T03:53:47.838Z,16.60
2023-07-03T03:56:15.798Z,16.50
2023-07-03T03:58:43.440Z,16.50
2023-07-03T04:01:10.329Z,16.50
2023-07-03T04:03:37.309Z,16.50
2023-07-03T04:06:04.205Z,16.50
2023-07-03T04:08:30.938Z,16.60
2023-07-03T04:10:57.883Z,16.60
2023-07-03T04:13:27.666Z,16.60
2023-07-03T04:15:55.296Z,16.70
2023-07-03T04:18:23.008Z,16.80
2023-07-03T04:20:49.964Z,17.00
2023-07-03T04:23:17.423Z,17.10
2023-07-03T04:25:44.161Z,17.20
2023-07-03T04:28:13.916Z,17.30
2023-07-03T04:30:40.675Z,17.40
2023-07-03T04:33:07.622Z,17.50
2023-07-03T04:35:35.557Z,17.70
2023-07-03T04:38:02.691Z,18.00
2023-07-03T04:40:31.120Z,18.20
2023-07-03T04:42:58.085Z,18.40
2023-07-03T04:45:26.153Z,18.50
2023-07-03T04:47:54.581Z,18.60
2023-07-03T04:50:25.830Z,18.80
2023-07-03T04:52:58.233Z,18.70
2023-07-03T04:55:26.070Z,18.50
2023-07-03T04:57:52.922Z,18.40
2023-07-03T05:00:20.468Z,18.20
2023-07-03T05:02:52.447Z,18.20
2023-07-03T05:05:19.724Z,18.20
2023-07-03T05:07:46.551Z,18.20
2023-07-03T05:10:15.374Z,18.20
2023-07-03T05:12:43.415Z,18.20
2023-07-03T05:15:11.221Z,18.10
2023-07-03T05:17:41.583Z,18.10
2023-07-03T05:20:13.183Z,18.20
2023-07-03T05:22:40.892Z,18.20
2023-07-03T05:25:08.958Z,18.20
2023-07-03T05:27:36.096Z,18.40
2023-07-03T05:30:04.368Z,18.60
2023-07-03T05:32:31.388Z,18.80
2023-07-03T05:34:58.543Z,19.00
2023-07-03T05:37:25.468Z,19.00
2023-07-03T05:39:52.345Z,19.00
2023-07-03T05:42:20.353Z,19.00
2023-07-03T05:44:47.662Z,19.10
2023-07-03T05:47:15.852Z,19.20
2023-07-03T05:49:43.587Z,19.50
2023-07-03T05:52:10.911Z,19.70
2023-07-03T05:54:38.575Z,19.90
2023-07-03T05:57:12.119Z,19.90
2023-07-03T05:59:39.827Z,20.10
2023-07-03T06:02:10.940Z,20.20
2023-07-03T06:04:38.023Z,20.40
2023-07-03T06:07:05.609Z,20.50
2023-07-03T06:09:36.267Z,20.70
2023-07-03T06:12:03.738Z,20.90
2023-07-03T06:14:31.610Z,21.20
2023-07-03T06:16:59.789Z,21.40
2023-07-03T06:19:27.358Z,21.60
2023-07-03T06:21:54.472Z,21.60
2023-07-03T06:24:21.146Z,21.50
2023-07-03T06:26:47.965Z,21.40
2023-07-03T06:29:15.946Z,21.30
2023-07-03T06:31:53.312Z,21.20
2023-07-03T06:34:20.048Z,21.30
2023-07-03T06:36:48.195Z,21.30
2023-07-03T06:39:15.028Z,21.10
2023-07-03T06:41:41.981Z,20.90
2023-07-03T06:44:12.100Z,20.70
2023-07-03T06:46:38.850Z,20.60
2023-07-03T06:49:05.852Z,20.50
2023-07-03T06:51:32.564Z,20.40
2023-07-03T06:53:59.254Z,20.20
2023-07-03T06:56:29.378Z,20.10
2023-07-03T06:58:56.551Z,20.10
2023-07-03T07:01:24.465Z,20.10
2023-07-03T07:03:51.467Z,20.10
2023-07-03T07:06:25.613Z,20.10
2023-07-03T07:08:52.860Z,20.20
2023-07-03T07:11:22.907Z,20.30
2023-07-03T07:13:50.293Z,20.30
2023-07-03T07:16:21.381Z,20.40
2023-07-03T07:18:49.365Z,20.40
2023-07-03T07:21:16.406Z,20.40
2023-07-03T07:23:43.575Z,20.30
2023-07-03T07:26:10.276Z,20.30
2023-07-03T07:28:37.024Z,20.40
2023-07-03T07:31:03.898Z,20.50
2023-07-03T07:33:30.680Z,20.50
2023-07-03T07:35:57.372Z,20.50
2023-07-03T07:38:24.335Z,20.40
2023-07-03T07:41:01.012Z,20.40
2023-07-03T07:43:28.416Z,20.40
2023-07-03T07:45:55.313Z,20.40
2023-07-03T07:48:23.098Z,20.30
2023-07-03T07:50:51.224Z,20.30
2023-07-03T07:53:18.230Z,20.30
2023-07-03T07:55:44.940Z,20.10
2023-07-03T07:58:11.723Z,20.00
2023-07-03T08:00:40.130Z,19.90
2023-07-03T08:03:09.000Z,19.70
2023-07-03T08:05:39.749Z,19.70
2023-07-03T08:08:06.561Z,19.70
2023-07-03T08:10:33.346Z,19.70
2023-07-03T08:13:00.162Z,19.70
2023-07-03T08:15:27.260Z,19.70
2023-07-03T08:17:54.210Z,19.70
2023-07-03T08:20:21.035Z,19.60
2023-07-03T08:22:47.890Z,19.50
2023-07-03T08:25:14.785Z,19.40
2023-07-03T08:27:45.374Z,19.40
2023-07-03T08:30:12.486Z,19.20
2023-07-03T08:32:39.463Z,19.20
2023-07-03T08:37:39.016Z,19.10
2023-07-03T08:40:06.450Z,19.10
2023-07-03T08:42:34.990Z,19.30
2023-07-03T08:45:02.466Z,19.40
2023-07-03T08:47:30.599Z,19.60
2023-07-03T08:49:58.529Z,19.70
2023-07-03T08:52:31.083Z,19.90
2023-07-03T08:54:58.238Z,19.90
2023-07-03T08:57:25.696Z,19.90
2023-07-03T08:59:53.661Z,19.90
2023-07-03T09:02:39.239Z,19.90
2023-07-03T09:05:32.436Z,19.80
2023-07-03T09:08:04.509Z,19.70
2023-07-03T09:10:39.682Z,19.60
2023-07-03T09:13:29.672Z,19.60
2023-07-03T09:15:56.446Z,19.70
2023-07-03T09:18:27.034Z,19.80
2023-07-03T09:20:54.023Z,19.80
2023-07-03T09:23:28.477Z,19.90
2023-07-03T09:26:02.300Z,19.80
2023-07-03T09:28:33.693Z,19.90
2023-07-03T09:31:02.010Z,19.90
2023-07-03T09:33:30.343Z,19.70
2023-07-03T09:35:58.398Z,19.70
2023-07-03T09:38:25.840Z,19.60
2023-07-03T09:40:54.558Z,19.50
2023-07-03T09:43:26.464Z,19.30
2023-07-03T09:46:04.176Z,19.30
2023-07-03T09:48:31.748Z,19.30
2023-07-03T09:51:07.320Z,19.20
2023-07-03T09:53:38.888Z,19.20
2023-07-03T09:56:11.949Z,19.20
2023-07-03T09:58:43.860Z,19.20
2023-07-03T10:06:42.545Z,19.30
2023-07-03T10:12:11.184Z,19.50
2023-07-03T10:14:57.256Z,19.70
2023-07-03T10:17:28.328Z,19.90
2023-07-03T10:19:58.175Z,20.00
2023-07-03T10:22:26.811Z,20.30
2023-07-03T10:24:56.038Z,20.40
2023-07-03T10:27:25.163Z,20.50
2023-07-03T10:29:54.225Z,20.50
2023-07-03T10:32:24.218Z,20.60
2023-07-03T10:35:06.075Z,20.90
2023-07-03T10:37:39.053Z,21.20
2023-07-03T10:40:11.562Z,21.40
2023-07-03T10:42:42.455Z,21.60
2023-07-03T10:45:10.834Z,21.80
2023-07-03T10:47:53.477Z,21.90
2023-07-03T10:50:21.383Z,22.00
2023-07-03T10:52:48.139Z,22.00
2023-07-03T10:55:18.048Z,22.00
2023-07-03T10:58:01.755Z,22.00
2023-07-03T11:00:48.828Z,21.90
2023-07-03T11:03:15.667Z,21.80
2023-07-03T11:05:45.078Z,21.60
2023-07-03T11:08:14.943Z,21.40
2023-07-03T11:10:54.253Z,21.20
2023-07-03T11:13:31.145Z,21.20
2023-07-03T11:16:01.377Z,21.30
2023-07-03T11:23:57.901Z,21.60
2023-07-03T11:29:28.285Z,22.10
2023-07-03T11:31:55.613Z,22.30
2023-07-03T11:37:03.305Z,22.30
2023-07-03T11:44:40.817Z,22.20
2023-07-03T11:47:09.112Z,22.10
2023-07-03T11:49:37.493Z,22.10
2023-07-03T11:52:06.374Z,22.20
2023-07-03T11:54:34.834Z,22.10
2023-07-03T11:57:06.894Z,22.10
2023-07-03T11:59:43.636Z,22.20
2023-07-03T12:02:16.672Z,22.40
2023-07-03T12:04:45.491Z,22.50
2023-07-03T12:07:20.096Z,22.60
2023-07-03T12:09:47.264Z,22.50
2023-07-03T12:12:19.611Z,22.50
2023-07-03T12:14:53.449Z,22.40
2023-07-03T12:17:37.170Z,22.40
2023-07-03T12:20:20.431Z,22.40
2023-07-03T12:22:51.159Z,22.30
2023-07-03T12:25:20.701Z,22.20
2023-07-03T12:27:48.336Z,22.20
2023-07-03T12:30:26.271Z,22.20
2023-07-03T12:32:54.231Z,22.20
2023-07-03T12:35:24.407Z,22.10
2023-07-03T12:37:59.519Z,22.10
2023-07-03T12:40:26.508Z,22.00
2023-07-03T12:42:55.418Z,22.10
2023-07-03T12:45:24.563Z,22.10
2023-07-03T12:48:08.602Z,22.00
2023-07-03T12:50:51.158Z,22.00
2023-07-03T12:53:21.809Z,22.00
2023-07-03T12:55:51.681Z,21.90
2023-07-03T12:58:19.714Z,21.90
2023-07-03T13:00:47.931Z,21.80
2023-07-03T13:03:16.048Z,21.90
2023-07-03T13:05:43.001Z,21.90
2023-07-03T13:08:14.894Z,22.00
2023-07-03T13:10:43.968Z,22.20
2023-07-03T13:13:12.145Z,22.30
2023-07-03T13:15:43.290Z,22.30
2023-07-03T13:18:13.424Z,22.20
2023-07-03T13:20:41.578Z,22.20
2023-07-03T13:23:11.095Z,22.30
2023-07-03T13:25:42.361Z,22.30
2023-07-03T13:28:11.724Z,22.30
2023-07-03T13:30:40.192Z,22.20
2023-07-03T13:33:08.650Z,22.20
2023-07-03T13:35:40.640Z,22.10
2023-07-03T13:38:10.542Z,22.10
2023-07-03T13:40:37.279Z,22.10
2023-07-03T13:43:05.508Z,22.10
2023-07-03T13:45:32.716Z,22.20
2023-07-03T13:47:59.903Z,22.20
2023-07-03T13:50:26.736Z,22.20
2023-07-03T13:52:54.321Z,22.30
2023-07-03T13:55:21.385Z,22.30
2023-07-03T13:57:54.722Z,22.20
2023-07-03T14:00:24.215Z,22.20
2023-07-03T14:02:54.602Z,22.20
2023-07-03T14:05:21.978Z,22.20
2023-07-03T14:07:48.797Z,22.30
2023-07-03T14:10:20.895Z,22.30
2023-07-03T14:12:47.721Z,22.30
2023-07-03T14:15:19.398Z,22.40
2023-07-03T14:17:46.260Z,22.40
2023-07-03T14:20:15.901Z,22.40
2023-07-03T14:22:42.845Z,22.40
2023-07-03T14:25:12.998Z,22.50
2023-07-03T14:27:41.508Z,22.60
2023-07-03T14:30:09.575Z,22.70
2023-07-03T14:32:48.840Z,22.70
2023-07-03T14:35:22.084Z,22.70
2023-07-03T14:37:50.742Z,22.80
2023-07-03T14:40:18.026Z,22.80
2023-07-03T14:42:45.519Z,22.90
2023-07-03T14:45:12.388Z,23.00
2023-07-03T14:47:40.570Z,23.00
2023-07-03T14:50:09.835Z,23.00
2023-07-03T14:52:47.637Z,22.90
2023-07-03T14:55:15.865Z,22.80
2023-07-03T14:57:48.331Z,22.80
2023-07-03T15:00:15.813Z,22.80
2023-07-03T15:02:49.838Z,22.90
2023-07-03T15:05:18.092Z,22.90
2023-07-03T15:07:45.461Z,22.90
2023-07-03T15:10:12.489Z,22.90
2023-07-03T15:12:39.862Z,22.90
2023-07-03T15:15:07.527Z,22.80
2023-07-03T15:17:36.735Z,22.80
2023-07-03T15:20:05.277Z,22.80
2023-07-03T15:22:34.250Z,22.80
2023-07-03T15:25:01.000Z,22.90
2023-07-03T15:27:27.754Z,23.00
2023-07-03T15:29:54.554Z,23.00
2023-07-03T15:32:21.355Z,23.10
2023-07-03T15:34:51.912Z,23.10
2023-07-03T15:37:18.666Z,23.10
2023-07-03T15:39:45.390Z,23.10
2023-07-03T15:42:12.159Z,23.10
2023-07-03T15:44:39.420Z,23.10
2023-07-03T15:47:06.688Z,23.00
2023-07-03T15:49:35.865Z,23.00
2023-07-03T15:52:04.675Z,23.00
2023-07-03T15:54:35.765Z,23.10
2023-07-03T15:57:04.403Z,23.10
2023-07-03T15:59:31.175Z,23.10
2023-07-03T16:01:58.278Z,23.10
2023-07-03T16:04:27.904Z,23.10
2023-07-03T16:06:54.793Z,23.10
2023-07-03T16:09:21.496Z,23.10
2023-07-03T16:11:48.627Z,23.10
2023-07-03T16:14:15.582Z,23.00
2023-07-03T16:16:42.458Z,22.90
2023-07-03T16:19:09.423Z,22.90
2023-07-03T16:21:37.404Z,22.80
2023-07-03T16:24:04.615Z,22.80
2023-07-03T16:26:32.024Z,22.80
2023-07-03T16:28:58.900Z,22.80
2023-07-03T16:31:27.614Z,22.80
2023-07-03T16:33:57.964Z,22.70
2023-07-03T16:36:31.579Z,22.80
2023-07-03T16:39:00.289Z,22.70
2023-07-03T16:41:28.741Z,22.60
2023-07-03T16:43:56.565Z,22.60
2023-07-03T16:46:24.358Z,22.60
2023-07-03T16:48:52.498Z,22.70
2023-07-03T16:51:21.852Z,22.60
2023-07-03T16:53:49.263Z,22.60
2023-07-03T16:56:20.522Z,22.70
2023-07-03T16:58:55.211Z,22.70
2023-07-03T17:01:23.417Z,22.70
2023-07-03T17:03:51.351Z,22.70
2023-07-03T17:06:19.771Z,22.60
2023-07-03T17:08:47.073Z,22.60
2023-07-03T17:11:14.750Z,22.50
2023-07-03T17:13:45.134Z,22.50
2023-07-03T17:16:13.699Z,22.40
2023-07-03T17:18:40.697Z,22.30
2023-07-03T17:21:07.584Z,22.30
2023-07-03T17:23:35.634Z,22.30
2023-07-03T17:26:05.566Z,22.20
2023-07-03T17:28:32.791Z,22.00
2023-07-03T17:30:59.610Z,22.00
2023-07-03T17:33:26.926Z,22.00
2023-07-03T17:35:58.914Z,21.90
2023-07-03T17:38:25.861Z,21.90
2023-07-03T17:40:55.117Z,21.90
2023-07-03T17:43:25.215Z,21.90
2023-07-03T17:45:56.528Z,21.90
2023-07-03T17:48:23.900Z,21.90
2023-07-03T17:50:54.326Z,21.90
2023-07-03T17:53:24.842Z,21.90
2023-07-03T17:55:59.504Z,21.90
2023-07-03T17:58:51.516Z,22.00
2023-07-03T18:01:19.285Z,22.10
2023-07-03T18:03:52.040Z,22.10
2023-07-03T18:06:19.476Z,22.10
2023-07-03T18:08:49.378Z,22.00
2023-07-03T18:11:26.598Z,22.00
2023-07-03T18:13:54.642Z,21.90
2023-07-03T18:16:21.625Z,21.90
2023-07-03T18:18:51.112Z,21.90
2023-07-03T18:21:18.095Z,21.90
2023-07-03T18:23:49.480Z,22.00
2023-07-03T18:26:16.535Z,21.90
2023-07-03T18:28:46.357Z,21.90
2023-07-03T18:31:13.347Z,21.90
2023-07-03T18:33:40.308Z,21.90
2023-07-03T18:36:07.069Z,21.90
2023-07-03T18:38:33.927Z,21.90
2023-07-03T18:41:04.484Z,21.80
2023-07-03T18:43:31.494Z,21.80
2023-07-03T18:45:59.771Z,21.70
2023-07-03T18:48:26.613Z,21.70
2023-07-03T18:50:53.315Z,21.60
2023-07-03T18:53:25.127Z,21.60
2023-07-03T18:55:52.480Z,21.50
2023-07-03T18:58:21.891Z,21.50
2023-07-03T19:00:48.940Z,21.50
2023-07-03T19:03:15.973Z,21.50
2023-07-03T19:05:50.072Z,21.50
2023-07-03T19:08:17.305Z,21.40
2023-07-03T19:10:44.167Z,21.40
2023-07-03T19:13:10.981Z,21.40
2023-07-03T19:15:38.396Z,21.40
2023-07-03T19:18:05.368Z,21.30
2023-07-03T19:20:32.633Z,21.30
2023-07-03T19:23:02.217Z,21.20
2023-07-03T19:25:29.088Z,21.20
2023-07-03T19:27:56.422Z,21.20
2023-07-03T19:30:23.226Z,21.10
2023-07-03T19:32:50.106Z,21.10
2023-07-03T19:35:16.911Z,21.10
2023-07-03T19:37:48.552Z,21.10
2023-07-03T19:40:15.622Z,21.10
2023-07-03T19:42:42.599Z,21.10
2023-07-03T19:45:09.509Z,21.00
2023-07-03T19:47:36.820Z,21.00
2023-07-03T19:50:10.623Z,20.90
2023-07-03T19:52:37.632Z,20.80
2023-07-03T19:55:04.816Z,20.80
2023-07-03T19:57:31.739Z,20.70
2023-07-03T19:59:58.707Z,20.70
2023-07-03T20:02:25.714Z,20.70
2023-07-03T20:04:52.587Z,20.70
2023-07-03T20:07:19.442Z,20.60
2023-07-03T20:09:46.155Z,20.50
2023-07-03T20:12:12.992Z,20.60
2023-07-03T20:14:39.681Z,20.50
2023-07-03T20:17:06.922Z,20.40
2023-07-03T20:19:33.693Z,20.40
2023-07-03T20:22:00.560Z,20.30
2023-07-03T20:24:27.356Z,20.30
2023-07-03T20:26:54.541Z,20.20
2023-07-03T20:29:21.286Z,20.10
2023-07-03T20:31:49.359Z,20.10
2023-07-03T20:34:16.032Z,20.10
2023-07-03T20:36:43.284Z,20.00
2023-07-03T20:39:10.205Z,20.00
2023-07-03T20:41:39.952Z,20.00
2023-07-03T20:44:07.206Z,20.00
2023-07-03T20:46:34.954Z,20.00
2023-07-03T20:49:04.947Z,19.90
2023-07-03T20:51:34.335Z,19.90
2023-07-03T20:54:04.273Z,19.90
2023-07-03T20:56:36.241Z,19.90
2023-07-03T20:59:03.407Z,19.90
2023-07-03T21:01:32.954Z,19.80
2023-07-03T21:04:00.853Z,19.80
2023-07-03T21:06:28.875Z,19.70
2023-07-03T21:09:05.421Z,19.70
2023-07-03T21:11:35.916Z,19.60
2023-07-03T21:14:05.805Z,19.60
2023-07-03T21:16:34.139Z,19.60
2023-07-03T21:19:01.343Z,19.50
2023-07-03T21:21:32.545Z,19.60
2023-07-03T21:24:00.778Z,19.50
2023-07-03T21:26:28.058Z,19.40
2023-07-03T21:28:55.399Z,19.40
2023-07-03T21:31:26.802Z,19.30
2023-07-03T21:33:53.587Z,19.30
2023-07-03T21:36:24.352Z,19.20
2023-07-03T21:38:52.196Z,19.20
2023-07-03T21:41:19.447Z,19.10
2023-07-03T21:43:52.138Z,19.10
2023-07-03T21:46:19.467Z,19.00
2023-07-03T21:48:46.932Z,19.00
2023-07-03T21:51:16.392Z,19.00
2023-07-03T21:53:43.620Z,19.00
2023-07-03T21:56:10.581Z,19.00
2023-07-03T21:58:40.870Z,19.00
2023-07-03T22:01:15.624Z,18.90
2023-07-03T22:03:42.681Z,18.80
2023-07-03T22:06:10.718Z,18.80
2023-07-03T22:08:37.641Z,18.70
2023-07-03T22:11:04.485Z,18.70
2023-07-03T22:13:31.220Z,18.70
2023-07-03T22:15:57.972Z,18.60
2023-07-03T22:18:25.127Z,18.60
2023-07-03T22:20:54.963Z,18.70
2023-07-03T22:23:31.653Z,18.60
2023-07-03T22:26:00.468Z,18.70
2023-07-03T22:28:27.786Z,18.70
2023-07-03T22:30:54.717Z,18.60
2023-07-03T22:33:22.422Z,18.60
2023-07-03T22:35:49.707Z,18.70
2023-07-03T22:38:16.703Z,18.70
2023-07-03T22:40:43.419Z,18.70
2023-07-03T22:43:10.120Z,18.70
2023-07-03T22:45:37.160Z,18.60
2023-07-03T22:48:04.216Z,18.50
2023-07-03T22:50:31.065Z,18.50
2023-07-03T22:52:58.643Z,18.50
2023-07-03T22:55:25.675Z,18.40
2023-07-03T22:57:52.533Z,18.40
2023-07-03T23:00:19.652Z,18.30
2023-07-03T23:02:46.586Z,18.30
2023-07-03T23:05:13.674Z,18.30
2023-07-03T23:07:40.487Z,18.30
2023-07-03T23:10:07.718Z,18.30
2023-07-03T23:12:34.748Z,18.30
2023-07-03T23:15:01.760Z,18.30
2023-07-03T23:17:29.997Z,18.30
2023-07-03T23:19:56.892Z,18.30
2023-07-03T23:22:24.179Z,18.30
2023-07-03T23:24:55.031Z,18.30
2023-07-03T23:27:22.249Z,18.30
2023-07-03T23:29:49.631Z,18.30
2023-07-03T23:32:17.014Z,18.40
2023-07-03T23:34:43.733Z,18.30
2023-07-03T23:37:10.468Z,18.40
2023-07-03T23:39:37.626Z,18.40
2023-07-03T23:42:06.692Z,18.40
2023-07-03T23:44:34.008Z,18.40
2023-07-03T23:47:00.793Z,18.40
2023-07-03T23:49:27.824Z,18.40
2023-07-03T23:51:55.039Z,18.50
2023-07-03T23:54:23.632Z,18.50
2023-07-03T23:56:51.197Z,18.50
2023-07-03T23:59:20.418Z,18.50
